Time;durP1;ratioP1;P1;durP2;ratioP2;P2;SDS_P1;SDS_P2;PMS_P1;PMS_P2;Temp;Humidity;BMP_temperature;BMP_pressure;BME280_temperature;BME280_humidity;BME280_pressure;Samples;Min_cycle;Max_cycle;Signal;HPM_P1;HPM_P2
2023/05/07 00:00:53;;;;;;;4.85;4.35;;;16.70;99.90;;;;;;5020425;28;20148;-92
2023/05/07 00:03:22;;;;;;;;;;;16.70;99.90;;;;;;5038038;28;20017;-92
2023/05/07 00:05:48;;;;;;;5.65;3.95;;;16.70;99.90;;;;;;5020335;28;19912;-93
2023/05/07 00:08:13;;;;;;;6.25;4.15;;;16.70;99.90;;;;;;5020448;28;20025;-93
2023/05/07 00:10:39;;;;;;;6.05;4.22;;;16.70;99.90;;;;;;5021384;28;20131;-90
2023/05/07 00:13:05;;;;;;;5.40;4.32;;;16.70;99.90;;;;;;5011908;28;20055;-94
2023/05/07 00:15:33;;;;;;;6.95;4.68;;;16.70;99.90;;;;;;5023986;28;20022;-92
2023/05/07 00:18:01;;;;;;;5.60;4.20;;;16.70;99.90;;;;;;5023629;28;20049;-89
2023/05/07 00:20:27;;;;;;;5.40;4.88;;;16.70;99.90;;;;;;5017284;28;20019;-94
2023/05/07 00:22:55;;;;;;;6.80;4.75;;;16.70;99.90;;;;;;5016357;28;20086;-89
2023/05/07 00:25:24;;;;;;;6.32;5.00;;;16.70;99.90;;;;;;5001530;28;20029;-93
2023/05/07 00:27:50;;;;;;;5.03;4.10;;;16.70;99.90;;;;;;4981305;28;20030;-92
2023/05/07 00:30:16;;;;;;;5.65;4.65;;;16.70;99.90;;;;;;5009221;28;20021;-93
2023/05/07 00:32:42;;;;;;;5.60;4.18;;;16.70;99.90;;;;;;5019899;28;20032;-94
2023/05/07 00:35:08;;;;;;;4.88;4.38;;;16.70;99.90;;;;;;5019171;28;20030;-93
2023/05/07 00:37:34;;;;;;;5.30;4.80;;;16.70;99.90;;;;;;5011821;28;20058;-92
2023/05/07 00:40:00;;;;;;;5.05;4.53;;;16.70;99.90;;;;;;4999421;28;20057;-92
2023/05/07 00:42:25;;;;;;;5.25;4.75;;;16.70;99.90;;;;;;4999577;28;20064;-92
2023/05/07 00:44:54;;;;;;;5.47;4.60;;;16.70;99.90;;;;;;4999517;28;20018;-94
2023/05/07 00:47:22;;;;;;;6.40;4.43;;;16.60;99.90;;;;;;4999427;28;20041;-94
2023/05/07 00:49:49;;;;;;;5.22;4.50;;;16.60;99.90;;;;;;4983582;28;20025;-91
2023/05/07 00:52:17;;;;;;;5.70;4.68;;;16.60;99.90;;;;;;4992002;28;20046;-92
2023/05/07 00:54:43;;;;;;;5.93;4.80;;;16.60;99.90;;;;;;4980693;28;20085;-92
2023/05/07 00:57:12;;;;;;;5.75;4.75;;;16.60;99.90;;;;;;5016561;28;20088;-92
2023/05/07 00:59:40;;;;;;;6.97;4.50;;;16.60;99.90;;;;;;5036356;28;20466;-92
2023/05/07 01:02:08;;;;;;;6.18;5.20;;;16.50;99.90;;;;;;5019065;28;20032;-92
2023/05/07 01:04:36;;;;;;;6.13;4.93;;;16.50;99.90;;;;;;5018574;28;20029;-92
2023/05/07 01:07:03;;;;;;;6.80;5.53;;;16.50;99.90;;;;;;5002620;28;20021;-93
2023/05/07 01:09:29;;;;;;;6.07;5.00;;;16.50;99.90;;;;;;5018921;28;20524;-92
2023/05/07 01:11:57;;;;;;;7.43;5.18;;;16.50;99.90;;;;;;5019052;28;20034;-92
2023/05/07 01:14:25;;;;;;;6.55;4.60;;;16.40;99.90;;;;;;5036460;28;20024;-92
2023/05/07 01:16:51;;;;;;;5.88;5.25;;;16.40;99.90;;;;;;5020529;28;20029;-94
2023/05/07 01:19:19;;;;;;;7.25;5.68;;;16.40;99.90;;;;;;5038706;28;20025;-93
2023/05/07 01:21:49;;;;;;;6.32;5.30;;;16.40;99.90;;;;;;5011692;28;20030;-95
2023/05/07 01:24:17;;;;;;;7.25;5.75;;;16.40;99.90;;;;;;5001636;28;20025;-93
2023/05/07 01:26:46;;;;;;;6.28;5.38;;;16.40;99.90;;;;;;5002285;28;20065;-94
2023/05/07 01:29:14;;;;;;;6.05;5.40;;;16.30;99.90;;;;;;5002881;28;20022;-93
2023/05/07 01:31:42;;;;;;;7.65;5.80;;;16.30;99.90;;;;;;5009027;28;20045;-92
2023/05/07 01:34:09;;;;;;;8.38;5.70;;;16.30;99.90;;;;;;5022667;28;20029;-93
2023/05/07 01:36:38;;;;;;;8.23;6.15;;;16.30;99.90;;;;;;5038129;28;20032;-92
2023/05/07 01:39:05;;;;;;;7.38;5.70;;;16.30;99.90;;;;;;5036437;28;20092;-88
2023/05/07 01:41:31;;;;;;;7.13;5.80;;;16.30;99.90;;;;;;5019335;28;20036;-93
2023/05/07 01:44:10;;;;;;;8.55;6.60;;;16.30;99.90;;;;;;5017961;28;20053;-94
2023/05/07 01:46:36;;;;;;;8.82;6.25;;;16.30;99.90;;;;;;5024096;28;20021;-93
2023/05/07 01:49:01;;;;;;;5.95;5.40;;;16.30;99.90;;;;;;5014099;28;20521;-93
2023/05/07 01:51:27;;;;;;;7.18;5.80;;;16.30;99.90;;;;;;5019339;28;20030;-92
2023/05/07 01:53:53;;;;;;;7.70;6.15;;;16.30;99.90;;;;;;5020328;28;20068;-92
2023/05/07 01:56:20;;;;;;;7.97;6.20;;;16.30;99.90;;;;;;5004931;28;20045;-91
2023/05/07 01:58:46;;;;;;;6.55;5.78;;;16.30;99.90;;;;;;5012142;28;20025;-92
2023/05/07 02:01:13;;;;;;;8.30;7.50;;;16.30;99.90;;;;;;5021071;28;20026;-91
2023/05/07 02:03:39;;;;;;;6.88;6.18;;;16.30;99.90;;;;;;5027168;28;20017;-92
2023/05/07 02:06:05;;;;;;;6.95;5.95;;;16.30;99.90;;;;;;5041505;28;20080;-92
2023/05/07 02:08:31;;;;;;;7.38;6.20;;;16.30;99.90;;;;;;5040144;28;20049;-91
2023/05/07 02:10:57;;;;;;;7.68;6.97;;;16.30;99.90;;;;;;5023725;28;20022;-92
2023/05/07 02:13:25;;;;;;;7.85;6.90;;;16.30;99.90;;;;;;4982719;28;20030;-92
2023/05/07 02:15:51;;;;;;;7.50;6.50;;;16.30;99.90;;;;;;4979654;28;20548;-93
2023/05/07 02:18:17;;;;;;;7.00;6.30;;;16.30;99.90;;;;;;5003020;28;20018;-95
2023/05/07 02:20:43;;;;;;;7.45;6.68;;;16.30;99.90;;;;;;4998527;28;20030;-94
2023/05/07 02:23:09;;;;;;;8.75;7.07;;;16.30;99.90;;;;;;4982595;28;20385;-92
2023/05/07 02:25:38;;;;;;;7.88;7.07;;;16.30;99.90;;;;;;4998325;28;20117;-93
2023/05/07 02:28:07;;;;;;;7.95;6.93;;;16.30;99.90;;;;;;4998685;28;20495;-93
2023/05/07 02:30:33;;;;;;;8.18;7.38;;;16.30;99.90;;;;;;5000301;28;20409;-93
2023/05/07 02:32:58;;;;;;;8.35;7.53;;;16.30;99.90;;;;;;5018309;28;20113;-92
2023/05/07 02:35:27;;;;;;;10.13;7.85;;;16.30;99.90;;;;;;4991836;28;20049;-91
2023/05/07 02:37:53;;;;;;;8.15;7.35;;;16.20;99.90;;;;;;4988432;28;20093;-91
2023/05/07 02:40:19;;;;;;;8.18;7.38;;;16.20;99.90;;;;;;5009490;28;20080;-94
2023/05/07 02:42:45;;;;;;;9.50;8.50;;;16.20;99.90;;;;;;5009128;28;20025;-93
2023/05/07 02:45:11;;;;;;;9.43;8.40;;;16.20;99.90;;;;;;5013656;28;20052;-93
2023/05/07 02:47:36;;;;;;;10.43;9.02;;;16.20;99.90;;;;;;5020316;28;20025;-92
2023/05/07 02:50:03;;;;;;;10.30;8.45;;;16.10;99.90;;;;;;4999413;28;20018;-93
2023/05/07 02:52:31;;;;;;;9.73;8.52;;;16.10;99.90;;;;;;4978120;28;20038;-93
2023/05/07 02:55:00;;;;;;;11.80;9.65;;;16.20;99.90;;;;;;4994781;28;20022;-93
2023/05/07 02:57:25;;;;;;;9.40;8.43;;;16.10;99.90;;;;;;4990663;28;20518;-92
2023/05/07 02:59:51;;;;;;;10.93;9.82;;;16.10;99.90;;;;;;4989600;28;20035;-93
2023/05/07 03:02:20;;;;;;;11.05;10.05;;;16.10;99.90;;;;;;4994385;28;20034;-90
2023/05/07 03:04:45;;;;;;;11.95;10.75;;;16.10;99.90;;;;;;5005543;28;20592;-93
2023/05/07 03:07:11;;;;;;;11.75;10.55;;;16.20;99.90;;;;;;4991569;28;20117;-91
2023/05/07 03:09:39;;;;;;;11.82;10.63;;;16.10;99.90;;;;;;4961711;28;20054;-92
2023/05/07 03:12:05;;;;;;;12.50;11.30;;;16.10;99.90;;;;;;4977980;28;20037;-93
2023/05/07 03:14:31;;;;;;;12.32;11.05;;;16.00;99.90;;;;;;5013176;28;20036;-92
2023/05/07 03:16:57;;;;;;;11.95;10.75;;;16.00;99.90;;;;;;4981218;28;20029;-93
2023/05/07 03:19:23;;;;;;;10.73;9.73;;;16.00;99.90;;;;;;4998247;28;20072;-90
2023/05/07 03:21:54;;;;;;;10.82;9.75;;;16.00;99.90;;;;;;5000841;28;20061;-93
2023/05/07 03:24:20;;;;;;;10.98;9.98;;;16.00;99.90;;;;;;5018079;28;20036;-90
2023/05/07 03:26:45;;;;;;;10.95;9.48;;;16.00;99.90;;;;;;5001228;28;20448;-91
2023/05/07 03:29:11;;;;;;;10.40;9.25;;;16.00;99.90;;;;;;4997337;28;20402;-93
2023/05/07 03:31:40;;;;;;;11.85;10.55;;;16.00;99.90;;;;;;5000849;28;20064;-92
2023/05/07 03:34:11;;;;;;;12.05;10.85;;;16.00;99.90;;;;;;5000505;28;20501;-93
2023/05/07 03:36:39;;;;;;;11.73;10.55;;;16.00;99.90;;;;;;5001173;28;20113;-92
2023/05/07 03:39:05;;;;;;;12.07;10.02;;;16.00;99.90;;;;;;4986423;28;20058;-91
2023/05/07 03:41:32;;;;;;;11.10;10.00;;;16.00;99.90;;;;;;5007618;28;20466;-90
2023/05/07 03:44:00;;;;;;;12.23;10.75;;;16.00;99.90;;;;;;5021478;28;20153;-91
2023/05/07 03:46:35;;;;;;;12.50;11.30;;;16.00;99.90;;;;;;5022565;28;20485;-93
2023/05/07 03:49:00;;;;;;;11.15;9.77;;;15.90;99.90;;;;;;5037231;28;20032;-94
2023/05/07 03:51:30;;;;;;;12.02;10.73;;;15.90;99.90;;;;;;5020019;28;20050;-87
2023/05/07 03:53:57;;;;;;;12.27;10.98;;;15.80;99.90;;;;;;5000433;28;20121;-92
2023/05/07 03:56:26;;;;;;;11.68;10.48;;;15.80;99.90;;;;;;5011694;28;20085;-92
2023/05/07 03:58:52;;;;;;;12.32;11.13;;;15.80;99.90;;;;;;5000936;28;20045;-93
2023/05/07 04:01:18;;;;;;;11.02;9.93;;;15.80;99.90;;;;;;5001030;28;20030;-90
2023/05/07 04:03:44;;;;;;;12.45;11.23;;;15.70;99.90;;;;;;5000538;28;20382;-93
2023/05/07 04:06:16;;;;;;;12.75;11.48;;;15.80;99.90;;;;;;4984312;28;20458;-92
2023/05/07 04:08:42;;;;;;;12.25;10.98;;;15.80;99.90;;;;;;5000032;28;20028;-91
2023/05/07 04:11:08;;;;;;;11.85;10.65;;;15.80;99.90;;;;;;4999727;28;20026;-92
2023/05/07 04:13:34;;;;;;;12.15;10.88;;;15.80;99.90;;;;;;5000335;28;20030;-91
2023/05/07 04:16:02;;;;;;;12.65;11.35;;;15.80;99.90;;;;;;4997582;28;20018;-91
2023/05/07 04:18:28;;;;;;;11.98;10.77;;;15.70;99.90;;;;;;5017288;28;20051;-91
2023/05/07 04:20:54;;;;;;;12.27;10.77;;;15.80;99.90;;;;;;4984153;28;20050;-92
2023/05/07 04:23:20;;;;;;;13.00;11.70;;;15.80;99.90;;;;;;5000598;28;20022;-93
2023/05/07 04:25:46;;;;;;;12.27;11.07;;;15.70;99.90;;;;;;5003055;28;20079;-92
2023/05/07 04:28:13;;;;;;;12.45;11.15;;;15.70;99.90;;;;;;5036971;28;20053;-92
2023/05/07 04:30:41;;;;;;;11.73;10.20;;;15.70;99.90;;;;;;5004786;28;20029;-92
2023/05/07 04:33:10;;;;;;;11.77;10.57;;;15.80;99.90;;;;;;5000120;28;20037;-91
2023/05/07 04:35:36;;;;;;;11.95;10.77;;;15.70;99.90;;;;;;4999724;28;20026;-93
2023/05/07 04:38:04;;;;;;;12.18;10.65;;;15.70;99.90;;;;;;4988186;28;20117;-92
2023/05/07 04:40:39;;;;;;;12.45;10.82;;;15.70;99.90;;;;;;4998223;28;20037;-89
2023/05/07 04:43:13;;;;;;;11.73;10.32;;;15.60;99.90;;;;;;4999620;28;20026;-93
2023/05/07 04:45:41;;;;;;;12.18;10.98;;;15.60;99.90;;;;;;4999665;28;20053;-96
2023/05/07 04:48:07;;;;;;;10.57;9.55;;;15.60;99.90;;;;;;5001757;28;20389;-93
2023/05/07 04:50:35;;;;;;;11.80;10.55;;;15.60;99.90;;;;;;5019041;28;20021;-90
2023/05/07 04:53:01;;;;;;;11.85;10.65;;;15.60;99.90;;;;;;5037301;28;20064;-92
2023/05/07 04:55:29;;;;;;;12.15;10.85;;;15.60;99.90;;;;;;5019326;28;20423;-92
2023/05/07 04:57:57;;;;;;;11.27;10.23;;;15.60;99.90;;;;;;5018833;28;20112;-93
2023/05/07 05:00:27;;;;;;;11.70;10.52;;;15.60;99.90;;;;;;5002968;28;20034;-94
2023/05/07 05:02:53;;;;;;;11.05;10.05;;;15.60;99.90;;;;;;5018945;28;20052;-92
2023/05/07 05:05:19;;;;;;;11.10;9.95;;;15.60;99.90;;;;;;5009398;28;20025;-92
2023/05/07 05:07:48;;;;;;;11.25;10.15;;;15.70;99.90;;;;;;4996567;28;20116;-93
2023/05/07 05:10:14;;;;;;;11.27;10.25;;;15.70;99.90;;;;;;4989018;28;20026;-92
2023/05/07 05:12:39;;;;;;;12.65;11.07;;;15.70;99.90;;;;;;4963998;28;20033;-92
2023/05/07 05:15:06;;;;;;;11.20;10.10;;;15.70;99.90;;;;;;4980637;28;20058;-94
2023/05/07 05:17:34;;;;;;;13.98;12.40;;;15.70;99.90;;;;;;4980355;28;20030;-91
2023/05/07 05:20:00;;;;;;;13.15;11.75;;;15.70;99.90;;;;;;4981079;28;20058;-92
2023/05/07 05:22:30;;;;;;;12.43;11.23;;;15.60;99.90;;;;;;5018929;28;20030;-91
2023/05/07 05:24:56;;;;;;;12.25;10.60;;;15.50;99.90;;;;;;5021198;28;20524;-92
2023/05/07 05:27:27;;;;;;;16.75;13.55;;;15.60;99.90;;;;;;5018620;28;20024;-93
2023/05/07 05:29:55;;;;;;;12.70;11.38;;;15.60;99.90;;;;;;5041605;28;20028;-90
2023/05/07 05:32:28;;;;;;;11.40;10.40;;;15.60;99.90;;;;;;5030340;28;20037;-93
2023/05/07 05:34:54;;;;;;;13.95;11.73;;;15.60;99.90;;;;;;5021221;28;20014;-92
2023/05/07 05:37:20;;;;;;;12.65;11.23;;;15.50;99.90;;;;;;5000446;28;20025;-92
2023/05/07 05:39:46;;;;;;;11.70;10.55;;;15.50;99.90;;;;;;5000553;28;20056;-92
2023/05/07 05:42:14;;;;;;;12.68;11.38;;;15.60;99.90;;;;;;5009966;28;20034;-93
2023/05/07 05:44:40;;;;;;;14.60;13.10;;;15.60;99.90;;;;;;5018431;28;20029;-92
2023/05/07 05:47:06;;;;;;;13.50;12.20;;;15.60;99.90;;;;;;5001612;28;20148;-92
2023/05/07 05:49:32;;;;;;;14.18;12.68;;;15.50;99.90;;;;;;5001007;28;20026;-94
2023/05/07 05:51:58;;;;;;;13.35;11.98;;;15.60;99.90;;;;;;4981894;28;20030;-92
2023/05/07 05:54:23;;;;;;;13.48;12.07;;;15.50;99.90;;;;;;4999004;28;20036;-92
2023/05/07 05:56:52;;;;;;;12.13;10.93;;;15.50;99.90;;;;;;4998170;28;20134;-92
2023/05/07 05:59:17;;;;;;;12.18;10.98;;;15.50;99.90;;;;;;4997975;28;20022;-92
2023/05/07 06:01:43;;;;;;;11.68;10.57;;;15.60;99.90;;;;;;4997939;28;20429;-92
2023/05/07 06:04:09;;;;;;;13.25;11.95;;;15.60;99.90;;;;;;4998008;28;20093;-92
2023/05/07 06:06:37;;;;;;;13.50;12.10;;;15.70;99.90;;;;;;4991553;28;20022;-91
2023/05/07 06:09:05;;;;;;;13.52;12.13;;;15.60;99.90;;;;;;4981541;28;20385;-92
2023/05/07 06:11:33;;;;;;;13.40;12.13;;;15.60;99.90;;;;;;4998200;28;20462;-92
2023/05/07 06:14:01;;;;;;;13.00;11.63;;;15.70;99.90;;;;;;4981765;28;20394;-92
2023/05/07 06:16:30;;;;;;;11.80;10.60;;;15.70;99.90;;;;;;4981502;28;20025;-94
2023/05/07 06:18:58;;;;;;;12.00;10.90;;;15.80;99.90;;;;;;4981416;28;20038;-92
2023/05/07 06:21:26;;;;;;;12.05;10.65;;;15.70;99.90;;;;;;4982142;28;20041;-93
2023/05/07 06:23:52;;;;;;;12.57;11.38;;;15.80;99.90;;;;;;4979971;28;20018;-91
2023/05/07 06:26:20;;;;;;;12.02;10.45;;;15.80;99.90;;;;;;4971847;28;20106;-90
2023/05/07 06:28:46;;;;;;;13.10;11.00;;;15.90;99.90;;;;;;5005120;28;20120;-91
2023/05/07 06:31:20;;;;;;;11.15;10.13;;;15.90;99.90;;;;;;5001861;28;20026;-92
2023/05/07 06:33:46;;;;;;;10.23;9.20;;;15.90;99.90;;;;;;5003912;28;20048;-90
2023/05/07 06:36:17;;;;;;;11.40;10.30;;;16.00;99.90;;;;;;5015324;28;20482;-90
2023/05/07 06:38:42;;;;;;;10.82;9.82;;;16.10;99.90;;;;;;5010706;28;20017;-90
2023/05/07 06:41:08;;;;;;;11.23;10.18;;;16.10;99.90;;;;;;4973118;28;20027;-92
2023/05/07 06:43:34;;;;;;;12.38;11.07;;;16.10;99.90;;;;;;5004382;28;20037;-91
2023/05/07 06:45:59;;;;;;;12.35;11.15;;;16.20;99.90;;;;;;5014056;28;20058;-90
2023/05/07 06:48:28;;;;;;;14.57;11.25;;;16.20;99.90;;;;;;4994237;28;20062;-91
2023/05/07 06:50:55;;;;;;;13.18;11.80;;;16.20;99.90;;;;;;4987168;28;20057;-91
2023/05/07 06:53:24;;;;;;;12.80;10.38;;;16.20;99.90;;;;;;4994589;28;20080;-91
2023/05/07 06:55:49;;;;;;;12.75;11.45;;;16.20;99.90;;;;;;4993811;28;20057;-90
2023/05/07 06:58:18;;;;;;;14.00;12.52;;;16.20;99.90;;;;;;4978549;28;20034;-92
2023/05/07 07:00:44;;;;;;;14.75;13.25;;;16.20;99.90;;;;;;4994655;28;20030;-90
2023/05/07 07:03:09;;;;;;;12.60;11.30;;;16.10;99.90;;;;;;4978365;28;20639;-92
2023/05/07 07:05:38;;;;;;;13.85;12.52;;;16.10;99.90;;;;;;4995458;28;20121;-91
2023/05/07 07:08:04;;;;;;;14.88;13.48;;;16.10;99.90;;;;;;4998691;28;20027;-91
2023/05/07 07:10:35;;;;;;;15.25;13.82;;;16.10;99.90;;;;;;5030191;28;20082;-93
2023/05/07 07:13:10;;;;;;;13.13;11.70;;;16.00;99.90;;;;;;5040941;28;20039;-89
2023/05/07 07:15:36;;;;;;;13.45;12.05;;;16.10;99.90;;;;;;5049987;28;20018;-92
2023/05/07 07:18:07;;;;;;;14.73;13.23;;;16.10;99.90;;;;;;5037708;28;20030;-92
2023/05/07 07:20:36;;;;;;;14.57;13.18;;;16.10;99.90;;;;;;5000045;28;20018;-90
2023/05/07 07:23:02;;;;;;;14.32;12.88;;;16.10;99.90;;;;;;4982298;28;20549;-91
2023/05/07 07:25:32;;;;;;;13.15;11.85;;;16.20;99.90;;;;;;4990073;28;20064;-92
2023/05/07 07:28:03;;;;;;;13.90;12.57;;;16.30;99.90;;;;;;4997185;28;20025;-92
2023/05/07 07:30:28;;;;;;;16.85;15.25;;;16.40;99.90;;;;;;4997514;28;20085;-91
2023/05/07 07:32:57;;;;;;;17.13;15.50;;;16.30;99.90;;;;;;4997231;28;20121;-91
2023/05/07 07:35:23;;;;;;;16.80;15.20;;;16.30;99.90;;;;;;4996895;28;20033;-93
2023/05/07 07:37:59;;;;;;;16.92;15.30;;;16.30;99.90;;;;;;4995672;28;20022;-92
2023/05/07 07:40:26;;;;;;;15.65;14.05;;;16.30;99.90;;;;;;4977627;28;20480;-92
2023/05/07 07:42:53;;;;;;;13.90;12.57;;;16.30;99.90;;;;;;4984228;28;20026;-93
2023/05/07 07:45:21;;;;;;;16.17;14.68;;;16.30;99.90;;;;;;4983417;28;20025;-93
2023/05/07 07:47:47;;;;;;;14.82;13.32;;;16.30;99.90;;;;;;4977565;28;20037;-92
2023/05/07 07:50:17;;;;;;;13.82;12.52;;;16.40;99.90;;;;;;4993689;28;20113;-93
2023/05/07 07:52:46;;;;;;;13.82;12.43;;;16.50;99.90;;;;;;4993891;28;20067;-91
2023/05/07 07:55:17;;;;;;;15.65;14.07;;;16.50;99.90;;;;;;4995883;28;20026;-91
2023/05/07 07:57:45;;;;;;;16.00;14.40;;;16.60;99.90;;;;;;4981258;28;20034;-91
2023/05/07 08:00:12;;;;;;;15.93;14.35;;;16.60;99.90;;;;;;4996642;28;20049;-92
2023/05/07 08:02:46;;;;;;;18.23;16.42;;;16.60;99.90;;;;;;4981560;28;20133;-91
2023/05/07 08:05:12;;;;;;;15.18;13.65;;;16.60;99.90;;;;;;5034448;28;20037;-92
2023/05/07 08:07:47;;;;;;;18.85;15.48;;;16.60;99.90;;;;;;5018604;28;20037;-92
2023/05/07 08:10:20;;;;;;;16.85;14.98;;;16.60;99.90;;;;;;5019953;28;20037;-93
2023/05/07 08:12:50;;;;;;;15.55;13.95;;;16.70;99.90;;;;;;5005044;28;20048;-93
2023/05/07 08:15:18;;;;;;;13.63;12.32;;;16.80;99.90;;;;;;5021114;28;20029;-92
2023/05/07 08:17:44;;;;;;;16.58;14.93;;;16.80;99.90;;;;;;5019727;28;20496;-92
2023/05/07 08:20:15;;;;;;;16.70;14.82;;;16.90;99.90;;;;;;5019792;28;20021;-93
2023/05/07 08:22:43;;;;;;;;;;;16.90;99.90;;;;;;5004211;28;20132;-94
2023/05/07 08:25:14;;;;;;;15.60;12.57;;;16.90;99.90;;;;;;5020416;28;19968;-91
2023/05/07 08:27:42;;;;;;;16.67;14.93;;;16.90;99.90;;;;;;5037254;28;20116;-94
2023/05/07 08:30:08;;;;;;;15.65;14.02;;;17.00;99.90;;;;;;5037046;28;20022;-92
2023/05/07 08:32:34;;;;;;;19.15;17.20;;;17.00;99.90;;;;;;5019337;28;20115;-92
2023/05/07 08:35:00;;;;;;;16.55;14.60;;;17.00;99.90;;;;;;5009046;28;20030;-93
2023/05/07 08:37:26;;;;;;;15.43;13.88;;;17.10;99.90;;;;;;5017192;28;20474;-92
2023/05/07 08:39:54;;;;;;;14.63;13.23;;;17.10;99.90;;;;;;4981069;28;20033;-92
2023/05/07 08:42:43;;;;;;;17.02;13.93;;;17.20;99.90;;;;;;4966519;28;20057;-92
2023/05/07 08:45:12;;;;;;;14.98;13.38;;;17.20;99.90;;;;;;4982702;28;20081;-93
2023/05/07 08:48:01;;;;;;;14.30;12.77;;;17.30;99.90;;;;;;5013228;28;20021;-91
2023/05/07 08:50:38;;;;;;;15.00;13.10;;;17.40;99.90;;;;;;5020893;28;20017;-93
2023/05/07 08:53:12;;;;;;;14.27;12.85;;;17.40;99.90;;;;;;5022929;28;20517;-93
2023/05/07 08:55:41;;;;;;;14.30;12.90;;;17.50;99.90;;;;;;5025290;28;20037;-92
2023/05/07 08:58:27;;;;;;;15.60;13.35;;;17.60;99.90;;;;;;5007222;28;20034;-89
2023/05/07 09:00:53;;;;;;;14.35;12.52;;;17.60;99.90;;;;;;5039840;28;20041;-94
2023/05/07 09:03:22;;;;;;;14.77;13.32;;;17.70;99.90;;;;;;5006339;28;20022;-93
2023/05/07 09:05:54;;;;;;;15.45;13.25;;;17.70;99.90;;;;;;4998862;28;20038;-93
2023/05/07 09:08:33;;;;;;;14.27;12.80;;;17.70;99.90;;;;;;4985567;28;20036;-92
2023/05/07 09:11:19;;;;;;;18.33;16.42;;;17.80;99.90;;;;;;5017715;28;20030;-93
2023/05/07 09:13:47;;;;;;;15.13;13.52;;;17.80;99.90;;;;;;4999462;28;20044;-92
2023/05/07 09:16:21;;;;;;;15.45;12.98;;;17.90;99.90;;;;;;4976438;28;20094;-92
2023/05/07 09:18:54;;;;;;;14.35;12.18;;;17.90;99.90;;;;;;4982740;28;20034;-94
2023/05/07 09:21:22;;;;;;;15.15;13.40;;;18.10;99.90;;;;;;4999141;28;20054;-92
2023/05/07 09:23:52;;;;;;;13.60;12.20;;;18.10;99.90;;;;;;4998868;28;20037;-91
2023/05/07 09:26:20;;;;;;;14.25;11.02;;;18.20;99.90;;;;;;4990791;28;20495;-90
2023/05/07 09:28:57;;;;;;;12.93;11.65;;;18.30;99.90;;;;;;4998918;28;20022;-92
2023/05/07 09:31:24;;;;;;;12.07;10.82;;;18.40;99.90;;;;;;4997555;28;20088;-91
2023/05/07 09:33:52;;;;;;;12.25;10.95;;;18.50;99.90;;;;;;4986272;28;20021;-93
2023/05/07 09:36:24;;;;;;;12.93;11.60;;;18.60;99.90;;;;;;4990180;28;20093;-91
2023/05/07 09:38:57;;;;;;;14.13;12.18;;;18.70;99.90;;;;;;4988896;28;20014;-91
2023/05/07 09:41:25;;;;;;;13.48;12.18;;;18.70;99.90;;;;;;4980668;28;20395;-90
2023/05/07 09:43:57;;;;;;;13.35;11.98;;;18.80;99.90;;;;;;4985184;28;20450;-90
2023/05/07 09:46:31;;;;;;;13.93;12.35;;;18.80;99.90;;;;;;4980441;28;20030;-91
2023/05/07 09:49:04;;;;;;;13.55;12.15;;;18.80;99.90;;;;;;4984682;28;20439;-94
2023/05/07 09:51:45;;;;;;;14.40;12.77;;;18.90;99.90;;;;;;4979125;28;20030;-92
2023/05/07 09:54:11;;;;;;;15.68;13.88;;;18.90;99.90;;;;;;4997756;28;20034;-92
2023/05/07 09:56:43;;;;;;;12.13;10.77;;;18.90;99.90;;;;;;4992065;28;20110;-93
2023/05/07 09:59:16;;;;;;;15.02;12.68;;;19.00;99.90;;;;;;4972139;28;20121;-93
2023/05/07 10:01:43;;;;;;;13.18;11.77;;;19.10;99.90;;;;;;4995287;28;20434;-93
2023/05/07 10:04:21;;;;;;;14.75;13.23;;;19.10;99.90;;;;;;4994135;28;20481;-93
2023/05/07 10:07:00;;;;;;;;;;;;;;;;;;;;;
2023/05/07 10:09:34;;;;;;;15.93;13.02;;;19.20;99.90;;;;;;4997677;28;20049;-93
2023/05/07 10:12:03;;;;;;;14.75;12.38;;;19.30;99.90;;;;;;4982140;28;20489;-93
2023/05/07 10:14:37;;;;;;;14.05;12.00;;;19.40;99.90;;;;;;4996811;28;20034;-92
2023/05/07 10:17:06;;;;;;;11.35;10.25;;;19.40;99.90;;;;;;4965608;28;20405;-92
2023/05/07 10:19:36;;;;;;;14.27;12.85;;;19.40;99.90;;;;;;4996127;28;20424;-91
2023/05/07 10:22:07;;;;;;;12.95;11.63;;;19.50;99.90;;;;;;4996670;28;20544;-91
2023/05/07 10:24:36;;;;;;;11.90;10.70;;;19.60;99.90;;;;;;4990087;28;20054;-92
2023/05/07 10:27:12;;;;;;;12.02;10.93;;;19.70;99.90;;;;;;4995169;28;20025;-91
2023/05/07 10:29:51;;;;;;;11.77;10.60;;;19.70;99.90;;;;;;4997037;28;20029;-91
2023/05/07 10:32:44;;;;;;;12.63;10.30;;;19.80;99.90;;;;;;4991460;28;20384;-92
2023/05/07 10:35:35;;;;;;;12.90;10.57;;;19.90;99.90;;;;;;5016087;28;20034;-91
2023/05/07 10:38:02;;;;;;;11.82;10.48;;;20.00;99.90;;;;;;4996735;28;20032;-90
2023/05/07 10:40:42;;;;;;;10.60;9.60;;;20.00;99.90;;;;;;4989773;28;20018;-90
2023/05/07 10:43:09;;;;;;;10.32;9.23;;;20.00;99.90;;;;;;5000925;28;20049;-92
2023/05/07 10:45:34;;;;;;;10.27;9.27;;;20.00;99.90;;;;;;4998481;28;20006;-93
2023/05/07 10:48:17;;;;;;;12.48;10.73;;;20.10;99.90;;;;;;5018410;28;20045;-93
2023/05/07 10:50:46;;;;;;;11.73;10.52;;;20.20;99.90;;;;;;5003434;28;20010;-91
2023/05/07 10:53:18;;;;;;;12.75;11.13;;;20.10;99.90;;;;;;5017340;28;20027;-93
2023/05/07 10:55:48;;;;;;;11.13;9.88;;;20.10;99.90;;;;;;5013846;28;20050;-90
2023/05/07 10:58:40;;;;;;;;;;;;;;;;;;;;;
2023/05/07 11:01:09;;;;;;;11.70;10.50;;;20.30;99.90;;;;;;5010422;28;20568;-95
2023/05/07 11:03:57;;;;;;;12.27;10.57;;;20.20;99.90;;;;;;4997981;28;20022;-95
2023/05/07 11:06:31;;;;;;;11.35;10.25;;;20.30;99.90;;;;;;4996982;28;20026;-94
2023/05/07 11:08:59;;;;;;;12.57;11.35;;;20.30;99.90;;;;;;4997942;28;20018;-95
2023/05/07 11:12:03;;;;;;;10.50;9.45;;;20.30;99.90;;;;;;5010441;28;20035;-95
2023/05/07 11:14:46;;;;;;;10.75;9.73;;;20.40;99.90;;;;;;4933284;29;20038;-93
2023/05/07 11:17:15;;;;;;;11.20;9.95;;;20.50;99.90;;;;;;4952300;29;20047;-94
2023/05/07 11:19:57;;;;;;;9.18;8.27;;;20.50;99.90;;;;;;4944756;29;20475;-94
2023/05/07 11:22:56;;;;;;;10.05;9.00;;;20.60;99.90;;;;;;4943371;29;20031;-94
2023/05/07 11:25:58;;;;;;;;;;;;;;;;;;;;;
2023/05/07 11:28:47;;;;;;;9.75;8.75;;;20.70;99.90;;;;;;4953563;28;20134;-95
2023/05/07 11:31:29;;;;;;;10.38;7.70;;;20.80;99.90;;;;;;4973350;28;20038;-93
2023/05/07 11:34:15;;;;;;;;;;;;;;;;;;;;;
2023/05/07 11:36:48;;;;;;;11.82;10.63;;;21.00;99.90;;;;;;5006988;28;20086;-93
2023/05/07 11:39:35;;;;;;;9.77;8.80;;;21.00;99.90;;;;;;5000674;28;20032;-94
2023/05/07 11:42:08;;;;;;;8.80;8.00;;;21.10;99.90;;;;;;5037227;28;20469;-95
2023/05/07 11:47:54;;;;;;;11.43;10.23;;;21.20;99.90;;;;;;5031193;28;20029;-94
2023/05/07 11:50:22;;;;;;;11.00;9.70;;;21.20;99.90;;;;;;5025697;28;20401;-95
2023/05/07 11:53:16;;;;;;;12.43;11.13;;;21.20;99.90;;;;;;5021693;28;20095;-95
2023/05/07 11:55:49;;;;;;;12.70;10.20;;;21.20;99.90;;;;;;5019558;28;20505;-93
2023/05/07 11:58:45;;;;;;;8.77;7.85;;;21.10;99.90;;;;;;4993705;28;20022;-94
2023/05/07 12:01:25;;;;;;;9.23;8.32;;;21.20;99.90;;;;;;5011309;28;20025;-95
2023/05/07 12:04:12;;;;;;;10.60;9.60;;;21.20;99.90;;;;;;5042614;28;20125;-94
2023/05/07 12:06:45;;;;;;;11.30;10.20;;;21.30;99.90;;;;;;5040897;28;20013;-93
2023/05/07 12:09:36;;;;;;;10.20;8.40;;;21.30;99.90;;;;;;5023743;28;20036;-93
2023/05/07 12:12:07;;;;;;;8.23;7.38;;;21.30;99.90;;;;;;5045816;28;20068;-94
2023/05/07 12:14:39;;;;;;;9.60;8.70;;;21.30;99.90;;;;;;5015187;28;20111;-93
2023/05/07 12:17:15;;;;;;;8.82;7.93;;;21.30;99.90;;;;;;5031822;28;20018;-93
2023/05/07 12:19:59;;;;;;;9.23;8.32;;;21.40;99.90;;;;;;5000624;28;20044;-94
2023/05/07 12:22:30;;;;;;;9.32;8.43;;;21.40;99.90;;;;;;5006692;28;20565;-95
2023/05/07 12:25:21;;;;;;;11.65;10.52;;;21.40;99.90;;;;;;4988795;28;20062;-94
2023/05/07 12:27:55;;;;;;;11.00;9.90;;;21.30;99.90;;;;;;4989128;28;20030;-93
2023/05/07 12:37:13;;;;;;;;;;;;;;;;;;;;;
2023/05/07 12:40:22;;;;;;;;;;;;;;;;;;;;;
2023/05/07 12:46:20;;;;;;;8.90;8.05;;;21.30;99.90;;;;;;4970567;28;20058;-95
2023/05/07 12:49:18;;;;;;;9.27;8.38;;;21.30;99.90;;;;;;5017270;28;20034;-92
2023/05/07 12:52:02;;;;;;;;;;;;;;;;;;;;;
2023/05/07 12:57:58;;;;;;;8.45;7.65;;;21.20;99.90;;;;;;5022503;28;20053;-93
2023/05/07 13:00:48;;;;;;;;;;;;;;;;;;;;;
2023/05/07 13:03:33;;;;;;;9.73;8.73;;;21.20;99.90;;;;;;5001634;28;20535;-92
2023/05/07 13:06:12;;;;;;;9.95;8.80;;;21.20;99.90;;;;;;5020536;28;20125;-93
2023/05/07 13:09:13;;;;;;;8.98;8.07;;;21.20;99.90;;;;;;5021101;28;20026;-96
2023/05/07 13:11:55;;;;;;;9.50;8.60;;;21.20;99.90;;;;;;4981560;28;20042;-92
2023/05/07 13:14:42;;;;;;;9.90;8.38;;;21.30;99.90;;;;;;4997720;28;20030;-94
2023/05/07 13:17:53;;;;;;;;;;;;;;;;;;;;;
2023/05/07 13:20:56;;;;;;;9.55;6.97;;;21.20;99.90;;;;;;5006941;28;20036;-92